sensor_id;sensor_type;location;lat;lon;timestamp;P1;durP1;ratioP1;P2;durP2;ratioP2
359;SDS011;168;48.872;9.226;2023-03-05T00:00:54;28.20;;;19.00;;
359;SDS011;168;48.872;9.226;2023-03-05T00:03:21;26.37;;;17.37;;
359;SDS011;168;48.872;9.226;2023-03-05T00:05:48;28.30;;;18.50;;
359;SDS011;168;48.872;9.226;2023-03-05T00:08:22;24.50;;;17.23;;
359;SDS011;168;48.872;9.226;2023-03-05T00:10:54;25.90;;;18.80;;
359;SDS011;168;48.872;9.226;2023-03-05T00:13:21;25.50;;;17.57;;
359;SDS011;168;48.872;9.226;2023-03-05T00:15:50;29.23;;;18.20;;
359;SDS011;168;48.872;9.226;2023-03-05T00:18:18;27.90;;;17.37;;
359;SDS011;168;48.872;9.226;2023-03-05T00:20:46;33.00;;;18.73;;
359;SDS011;168;48.872;9.226;2023-03-05T00:23:13;31.23;;;22.40;;
359;SDS011;168;48.872;9.226;2023-03-05T00:25:41;43.43;;;29.97;;
359;SDS011;168;48.872;9.226;2023-03-05T00:28:10;46.90;;;32.57;;
359;SDS011;168;48.872;9.226;2023-03-05T00:30:37;30.67;;;23.83;;
359;SDS011;168;48.872;9.226;2023-03-05T00:33:06;36.20;;;23.90;;
359;SDS011;168;48.872;9.226;2023-03-05T00:35:37;32.70;;;22.53;;
359;SDS011;168;48.872;9.226;2023-03-05T00:38:05;27.47;;;18.00;;
359;SDS011;168;48.872;9.226;2023-03-05T00:40:34;26.43;;;18.47;;
359;SDS011;168;48.872;9.226;2023-03-05T00:43:03;27.23;;;17.90;;
359;SDS011;168;48.872;9.226;2023-03-05T00:45:33;25.97;;;18.43;;
359;SDS011;168;48.872;9.226;2023-03-05T00:48:03;24.53;;;17.77;;
359;SDS011;168;48.872;9.226;2023-03-05T00:50:33;29.37;;;18.90;;
359;SDS011;168;48.872;9.226;2023-03-05T00:53:05;27.60;;;19.33;;
359;SDS011;168;48.872;9.226;2023-03-05T00:55:35;28.13;;;19.20;;
359;SDS011;168;48.872;9.226;2023-03-05T00:58:03;24.87;;;17.27;;
359;SDS011;168;48.872;9.226;2023-03-05T01:00:33;27.77;;;18.10;;
359;SDS011;168;48.872;9.226;2023-03-05T01:03:02;29.00;;;17.33;;
359;SDS011;168;48.872;9.226;2023-03-05T01:05:39;32.30;;;19.00;;
359;SDS011;168;48.872;9.226;2023-03-05T01:08:07;27.40;;;17.73;;
359;SDS011;168;48.872;9.226;2023-03-05T01:10:36;26.50;;;19.10;;
359;SDS011;168;48.872;9.226;2023-03-05T01:13:05;24.97;;;18.10;;
359;SDS011;168;48.872;9.226;2023-03-05T01:15:36;25.40;;;17.73;;
359;SDS011;168;48.872;9.226;2023-03-05T01:18:04;26.70;;;18.13;;
359;SDS011;168;48.872;9.226;2023-03-05T01:20:34;26.83;;;16.90;;
359;SDS011;168;48.872;9.226;2023-03-05T01:23:21;26.43;;;17.90;;
359;SDS011;168;48.872;9.226;2023-03-05T01:25:52;27.07;;;17.17;;
359;SDS011;168;48.872;9.226;2023-03-05T01:28:21;25.03;;;16.47;;
359;SDS011;168;48.872;9.226;2023-03-05T01:30:51;26.67;;;18.50;;
359;SDS011;168;48.872;9.226;2023-03-05T01:33:20;24.90;;;17.00;;
359;SDS011;168;48.872;9.226;2023-03-05T01:35:48;24.23;;;16.27;;
359;SDS011;168;48.872;9.226;2023-03-05T01:38:16;24.03;;;16.90;;
359;SDS011;168;48.872;9.226;2023-03-05T01:40:45;28.20;;;17.80;;
359;SDS011;168;48.872;9.226;2023-03-05T01:43:23;29.17;;;18.97;;
359;SDS011;168;48.872;9.226;2023-03-05T01:48:57;29.90;;;18.40;;
359;SDS011;168;48.872;9.226;2023-03-05T01:51:29;30.13;;;16.87;;
359;SDS011;168;48.872;9.226;2023-03-05T01:54:00;26.77;;;15.33;;
359;SDS011;168;48.872;9.226;2023-03-05T01:56:37;26.67;;;17.60;;
359;SDS011;168;48.872;9.226;2023-03-05T01:59:13;27.07;;;16.40;;
359;SDS011;168;48.872;9.226;2023-03-05T02:01:58;31.60;;;18.00;;
359;SDS011;168;48.872;9.226;2023-03-05T02:04:31;27.70;;;16.23;;
359;SDS011;168;48.872;9.226;2023-03-05T02:07:05;23.23;;;16.20;;
359;SDS011;168;48.872;9.226;2023-03-05T02:09:36;24.57;;;15.50;;
359;SDS011;168;48.872;9.226;2023-03-05T02:12:07;25.20;;;16.00;;
359;SDS011;168;48.872;9.226;2023-03-05T02:14:36;23.23;;;14.20;;
359;SDS011;168;48.872;9.226;2023-03-05T02:17:08;20.40;;;14.13;;
359;SDS011;168;48.872;9.226;2023-03-05T02:19:48;26.67;;;15.83;;
359;SDS011;168;48.872;9.226;2023-03-05T02:22:20;22.27;;;15.13;;
359;SDS011;168;48.872;9.226;2023-03-05T02:24:50;23.50;;;14.43;;
359;SDS011;168;48.872;9.226;2023-03-05T02:27:26;23.97;;;14.60;;
359;SDS011;168;48.872;9.226;2023-03-05T02:29:59;25.20;;;14.90;;
359;SDS011;168;48.872;9.226;2023-03-05T02:32:37;22.57;;;14.63;;
359;SDS011;168;48.872;9.226;2023-03-05T02:35:05;24.40;;;16.13;;
359;SDS011;168;48.872;9.226;2023-03-05T02:37:40;21.63;;;14.00;;
359;SDS011;168;48.872;9.226;2023-03-05T02:40:09;30.47;;;16.93;;
359;SDS011;168;48.872;9.226;2023-03-05T02:42:40;22.93;;;14.23;;
359;SDS011;168;48.872;9.226;2023-03-05T02:45:08;24.97;;;13.47;;
359;SDS011;168;48.872;9.226;2023-03-05T02:47:36;21.17;;;13.93;;
359;SDS011;168;48.872;9.226;2023-03-05T02:50:04;22.97;;;13.60;;
359;SDS011;168;48.872;9.226;2023-03-05T02:52:34;23.00;;;14.63;;
359;SDS011;168;48.872;9.226;2023-03-05T02:55:04;22.57;;;14.00;;
359;SDS011;168;48.872;9.226;2023-03-05T02:57:32;20.83;;;14.30;;
359;SDS011;168;48.872;9.226;2023-03-05T03:00:02;25.67;;;14.60;;
359;SDS011;168;48.872;9.226;2023-03-05T03:02:31;21.40;;;14.30;;
359;SDS011;168;48.872;9.226;2023-03-05T03:05:02;22.90;;;13.97;;
359;SDS011;168;48.872;9.226;2023-03-05T03:07:37;22.63;;;13.27;;
359;SDS011;168;48.872;9.226;2023-03-05T03:10:08;27.00;;;16.00;;
359;SDS011;168;48.872;9.226;2023-03-05T03:12:38;21.23;;;13.10;;
359;SDS011;168;48.872;9.226;2023-03-05T03:15:08;22.43;;;13.10;;
359;SDS011;168;48.872;9.226;2023-03-05T03:17:41;23.83;;;13.80;;
359;SDS011;168;48.872;9.226;2023-03-05T03:20:12;19.37;;;12.73;;
359;SDS011;168;48.872;9.226;2023-03-05T03:22:45;23.67;;;13.33;;
359;SDS011;168;48.872;9.226;2023-03-05T03:25:20;23.00;;;13.43;;
359;SDS011;168;48.872;9.226;2023-03-05T03:27:49;20.67;;;12.80;;
359;SDS011;168;48.872;9.226;2023-03-05T03:30:35;23.00;;;12.20;;
359;SDS011;168;48.872;9.226;2023-03-05T03:33:02;19.60;;;12.43;;
359;SDS011;168;48.872;9.226;2023-03-05T03:35:29;20.20;;;13.30;;
359;SDS011;168;48.872;9.226;2023-03-05T03:37:57;17.13;;;11.83;;
359;SDS011;168;48.872;9.226;2023-03-05T03:40:26;19.30;;;12.50;;
359;SDS011;168;48.872;9.226;2023-03-05T03:42:53;21.30;;;11.83;;
359;SDS011;168;48.872;9.226;2023-03-05T03:45:21;20.30;;;12.77;;
359;SDS011;168;48.872;9.226;2023-03-05T03:47:49;20.70;;;11.10;;
359;SDS011;168;48.872;9.226;2023-03-05T03:50:17;20.37;;;13.30;;
359;SDS011;168;48.872;9.226;2023-03-05T03:52:46;19.30;;;12.67;;
359;SDS011;168;48.872;9.226;2023-03-05T03:55:13;18.83;;;11.40;;
359;SDS011;168;48.872;9.226;2023-03-05T03:57:42;20.57;;;13.90;;
359;SDS011;168;48.872;9.226;2023-03-05T04:00:10;26.57;;;14.30;;
359;SDS011;168;48.872;9.226;2023-03-05T04:02:38;21.53;;;12.63;;
359;SDS011;168;48.872;9.226;2023-03-05T04:05:06;21.70;;;12.20;;
359;SDS011;168;48.872;9.226;2023-03-05T04:07:34;20.80;;;12.00;;
359;SDS011;168;48.872;9.226;2023-03-05T04:10:02;20.70;;;12.30;;
359;SDS011;168;48.872;9.226;2023-03-05T04:12:29;21.93;;;11.70;;
359;SDS011;168;48.872;9.226;2023-03-05T04:14:58;18.70;;;12.67;;
359;SDS011;168;48.872;9.226;2023-03-05T04:17:25;18.27;;;11.53;;
359;SDS011;168;48.872;9.226;2023-03-05T04:19:53;22.10;;;11.80;;
359;SDS011;168;48.872;9.226;2023-03-05T04:22:20;20.30;;;11.43;;
359;SDS011;168;48.872;9.226;2023-03-05T04:24:48;21.20;;;11.30;;
359;SDS011;168;48.872;9.226;2023-03-05T04:27:15;17.27;;;11.67;;
359;SDS011;168;48.872;9.226;2023-03-05T04:29:43;18.10;;;11.43;;
359;SDS011;168;48.872;9.226;2023-03-05T04:32:12;24.90;;;12.37;;
359;SDS011;168;48.872;9.226;2023-03-05T04:34:40;19.40;;;11.40;;
359;SDS011;168;48.872;9.226;2023-03-05T04:37:09;18.67;;;11.53;;
359;SDS011;168;48.872;9.226;2023-03-05T04:39:37;24.00;;;12.67;;
359;SDS011;168;48.872;9.226;2023-03-05T04:42:04;20.67;;;11.67;;
359;SDS011;168;48.872;9.226;2023-03-05T04:44:32;20.53;;;11.07;;
359;SDS011;168;48.872;9.226;2023-03-05T04:47:00;17.23;;;11.63;;
359;SDS011;168;48.872;9.226;2023-03-05T04:49:29;16.13;;;11.20;;
359;SDS011;168;48.872;9.226;2023-03-05T04:51:56;20.47;;;10.70;;
359;SDS011;168;48.872;9.226;2023-03-05T04:54:24;23.20;;;11.60;;
359;SDS011;168;48.872;9.226;2023-03-05T04:56:51;24.17;;;11.97;;
359;SDS011;168;48.872;9.226;2023-03-05T04:59:19;18.90;;;11.03;;
359;SDS011;168;48.872;9.226;2023-03-05T05:01:46;18.77;;;12.60;;
359;SDS011;168;48.872;9.226;2023-03-05T05:04:14;19.47;;;10.67;;
359;SDS011;168;48.872;9.226;2023-03-05T05:06:43;19.07;;;11.37;;
359;SDS011;168;48.872;9.226;2023-03-05T05:09:10;16.00;;;10.67;;
359;SDS011;168;48.872;9.226;2023-03-05T05:11:40;18.90;;;12.17;;
359;SDS011;168;48.872;9.226;2023-03-05T05:14:07;20.43;;;11.60;;
359;SDS011;168;48.872;9.226;2023-03-05T05:16:34;21.30;;;12.80;;
359;SDS011;168;48.872;9.226;2023-03-05T05:19:02;17.37;;;11.50;;
359;SDS011;168;48.872;9.226;2023-03-05T05:21:35;22.93;;;12.73;;
359;SDS011;168;48.872;9.226;2023-03-05T05:24:05;19.63;;;10.80;;
359;SDS011;168;48.872;9.226;2023-03-05T05:26:32;23.20;;;11.80;;
359;SDS011;168;48.872;9.226;2023-03-05T05:29:02;19.17;;;11.43;;
359;SDS011;168;48.872;9.226;2023-03-05T05:31:30;19.20;;;13.27;;
359;SDS011;168;48.872;9.226;2023-03-05T05:33:57;18.87;;;11.60;;
359;SDS011;168;48.872;9.226;2023-03-05T05:36:24;24.37;;;13.20;;
359;SDS011;168;48.872;9.226;2023-03-05T05:38:52;22.27;;;13.13;;
359;SDS011;168;48.872;9.226;2023-03-05T05:41:23;21.20;;;12.80;;
359;SDS011;168;48.872;9.226;2023-03-05T05:43:50;24.17;;;12.57;;
359;SDS011;168;48.872;9.226;2023-03-05T05:46:18;19.40;;;11.63;;
359;SDS011;168;48.872;9.226;2023-03-05T05:48:46;20.33;;;12.60;;
359;SDS011;168;48.872;9.226;2023-03-05T05:51:15;19.27;;;11.63;;
359;SDS011;168;48.872;9.226;2023-03-05T05:53:44;21.43;;;11.33;;
359;SDS011;168;48.872;9.226;2023-03-05T05:56:12;20.83;;;12.47;;
359;SDS011;168;48.872;9.226;2023-03-05T05:58:43;29.30;;;14.40;;
359;SDS011;168;48.872;9.226;2023-03-05T06:01:13;21.47;;;13.20;;
359;SDS011;168;48.872;9.226;2023-03-05T06:03:43;20.40;;;12.80;;
359;SDS011;168;48.872;9.226;2023-03-05T06:06:12;22.73;;;13.90;;
359;SDS011;168;48.872;9.226;2023-03-05T06:08:41;25.63;;;13.23;;
359;SDS011;168;48.872;9.226;2023-03-05T06:11:10;22.67;;;12.33;;
359;SDS011;168;48.872;9.226;2023-03-05T06:13:38;23.57;;;12.83;;
359;SDS011;168;48.872;9.226;2023-03-05T06:16:09;23.00;;;12.00;;
359;SDS011;168;48.872;9.226;2023-03-05T06:18:38;21.63;;;12.37;;
359;SDS011;168;48.872;9.226;2023-03-05T06:21:07;22.77;;;14.17;;
359;SDS011;168;48.872;9.226;2023-03-05T06:23:38;25.17;;;13.50;;
359;SDS011;168;48.872;9.226;2023-03-05T06:26:09;22.77;;;12.60;;
359;SDS011;168;48.872;9.226;2023-03-05T06:28:38;22.73;;;13.50;;
359;SDS011;168;48.872;9.226;2023-03-05T06:31:08;20.93;;;12.27;;
359;SDS011;168;48.872;9.226;2023-03-05T06:33:37;23.33;;;13.13;;
359;SDS011;168;48.872;9.226;2023-03-05T06:36:05;25.37;;;13.50;;
359;SDS011;168;48.872;9.226;2023-03-05T06:38:35;24.33;;;12.17;;
359;SDS011;168;48.872;9.226;2023-03-05T06:41:02;23.97;;;12.67;;
359;SDS011;168;48.872;9.226;2023-03-05T06:43:34;22.37;;;13.40;;
359;SDS011;168;48.872;9.226;2023-03-05T06:46:12;21.70;;;12.80;;
359;SDS011;168;48.872;9.226;2023-03-05T06:48:41;21.00;;;13.50;;
359;SDS011;168;48.872;9.226;2023-03-05T06:51:13;21.87;;;13.10;;
359;SDS011;168;48.872;9.226;2023-03-05T06:53:41;23.83;;;14.05;;
359;SDS011;168;48.872;9.226;2023-03-05T06:56:09;23.97;;;14.27;;
359;SDS011;168;48.872;9.226;2023-03-05T06:58:41;23.97;;;13.70;;
359;SDS011;168;48.872;9.226;2023-03-05T07:01:16;28.87;;;13.67;;
359;SDS011;168;48.872;9.226;2023-03-05T07:03:43;24.87;;;14.77;;
359;SDS011;168;48.872;9.226;2023-03-05T07:06:12;21.67;;;14.60;;
359;SDS011;168;48.872;9.226;2023-03-05T07:08:40;20.50;;;12.80;;
359;SDS011;168;48.872;9.226;2023-03-05T07:11:09;22.57;;;14.37;;
359;SDS011;168;48.872;9.226;2023-03-05T07:13:37;22.10;;;13.13;;
359;SDS011;168;48.872;9.226;2023-03-05T07:16:05;23.90;;;13.47;;
359;SDS011;168;48.872;9.226;2023-03-05T07:18:35;24.40;;;12.87;;
359;SDS011;168;48.872;9.226;2023-03-05T07:21:02;24.57;;;15.47;;
359;SDS011;168;48.872;9.226;2023-03-05T07:23:31;22.23;;;12.80;;
359;SDS011;168;48.872;9.226;2023-03-05T07:25:59;23.93;;;13.90;;
359;SDS011;168;48.872;9.226;2023-03-05T07:28:27;19.97;;;12.90;;
359;SDS011;168;48.872;9.226;2023-03-05T07:30:55;27.20;;;14.87;;
359;SDS011;168;48.872;9.226;2023-03-05T07:33:25;20.70;;;12.23;;
359;SDS011;168;48.872;9.226;2023-03-05T07:35:54;23.57;;;14.50;;
359;SDS011;168;48.872;9.226;2023-03-05T07:38:22;21.17;;;13.10;;
359;SDS011;168;48.872;9.226;2023-03-05T07:40:49;20.97;;;12.93;;
359;SDS011;168;48.872;9.226;2023-03-05T07:43:17;19.10;;;12.30;;
359;SDS011;168;48.872;9.226;2023-03-05T07:45:45;20.93;;;13.17;;
359;SDS011;168;48.872;9.226;2023-03-05T07:48:13;24.47;;;13.77;;
359;SDS011;168;48.872;9.226;2023-03-05T07:50:42;21.73;;;14.00;;
359;SDS011;168;48.872;9.226;2023-03-05T07:53:11;25.53;;;13.60;;
359;SDS011;168;48.872;9.226;2023-03-05T07:55:42;19.03;;;12.83;;
359;SDS011;168;48.872;9.226;2023-03-05T07:58:10;21.13;;;14.23;;
359;SDS011;168;48.872;9.226;2023-03-05T08:00:38;20.60;;;13.77;;
359;SDS011;168;48.872;9.226;2023-03-05T08:03:06;18.30;;;12.90;;
359;SDS011;168;48.872;9.226;2023-03-05T08:05:33;19.93;;;12.60;;
359;SDS011;168;48.872;9.226;2023-03-05T08:08:04;23.50;;;13.00;;
359;SDS011;168;48.872;9.226;2023-03-05T08:10:34;19.13;;;12.83;;
359;SDS011;168;48.872;9.226;2023-03-05T08:13:02;20.53;;;13.60;;
359;SDS011;168;48.872;9.226;2023-03-05T08:15:30;22.27;;;13.03;;
359;SDS011;168;48.872;9.226;2023-03-05T08:17:57;25.07;;;13.60;;
359;SDS011;168;48.872;9.226;2023-03-05T08:20:24;28.07;;;13.97;;
359;SDS011;168;48.872;9.226;2023-03-05T08:22:52;23.97;;;13.50;;
359;SDS011;168;48.872;9.226;2023-03-05T08:25:20;23.83;;;13.40;;
359;SDS011;168;48.872;9.226;2023-03-05T08:27:49;20.33;;;11.90;;
359;SDS011;168;48.872;9.226;2023-03-05T08:30:18;19.03;;;11.13;;
359;SDS011;168;48.872;9.226;2023-03-05T08:32:52;19.57;;;11.60;;
359;SDS011;168;48.872;9.226;2023-03-05T08:35:21;23.67;;;13.70;;
359;SDS011;168;48.872;9.226;2023-03-05T08:37:49;19.90;;;12.57;;
359;SDS011;168;48.872;9.226;2023-03-05T08:40:17;20.70;;;12.57;;
359;SDS011;168;48.872;9.226;2023-03-05T08:42:47;19.50;;;12.10;;
359;SDS011;168;48.872;9.226;2023-03-05T08:45:37;19.57;;;12.40;;
359;SDS011;168;48.872;9.226;2023-03-05T08:48:07;21.87;;;12.20;;
359;SDS011;168;48.872;9.226;2023-03-05T08:50:34;21.37;;;12.03;;
359;SDS011;168;48.872;9.226;2023-03-05T08:53:02;17.80;;;12.60;;
359;SDS011;168;48.872;9.226;2023-03-05T08:55:29;23.77;;;13.33;;
359;SDS011;168;48.872;9.226;2023-03-05T08:57:56;22.80;;;13.20;;
359;SDS011;168;48.872;9.226;2023-03-05T09:00:25;22.33;;;12.37;;
359;SDS011;168;48.872;9.226;2023-03-05T09:02:53;18.87;;;12.00;;
359;SDS011;168;48.872;9.226;2023-03-05T09:05:20;20.30;;;12.23;;
359;SDS011;168;48.872;9.226;2023-03-05T09:07:48;20.83;;;12.00;;
359;SDS011;168;48.872;9.226;2023-03-05T09:10:16;20.87;;;13.63;;
359;SDS011;168;48.872;9.226;2023-03-05T09:12:43;19.97;;;13.67;;
359;SDS011;168;48.872;9.226;2023-03-05T09:15:11;22.60;;;12.37;;
359;SDS011;168;48.872;9.226;2023-03-05T09:17:40;21.97;;;13.10;;
359;SDS011;168;48.872;9.226;2023-03-05T09:20:10;26.07;;;14.07;;
359;SDS011;168;48.872;9.226;2023-03-05T09:22:38;24.30;;;13.33;;
359;SDS011;168;48.872;9.226;2023-03-05T09:25:06;17.17;;;12.87;;
359;SDS011;168;48.872;9.226;2023-03-05T09:27:36;20.70;;;13.60;;
359;SDS011;168;48.872;9.226;2023-03-05T09:30:05;20.80;;;13.87;;
359;SDS011;168;48.872;9.226;2023-03-05T09:32:33;20.77;;;14.40;;
359;SDS011;168;48.872;9.226;2023-03-05T09:35:02;19.87;;;13.97;;
359;SDS011;168;48.872;9.226;2023-03-05T09:37:30;21.93;;;14.50;;
359;SDS011;168;48.872;9.226;2023-03-05T09:39:58;24.57;;;14.60;;
359;SDS011;168;48.872;9.226;2023-03-05T09:42:27;24.47;;;14.27;;
359;SDS011;168;48.872;9.226;2023-03-05T09:45:07;22.73;;;12.27;;
359;SDS011;168;48.872;9.226;2023-03-05T09:47:44;25.13;;;13.53;;
359;SDS011;168;48.872;9.226;2023-03-05T09:50:27;21.37;;;13.77;;
359;SDS011;168;48.872;9.226;2023-03-05T09:53:04;19.00;;;13.27;;
359;SDS011;168;48.872;9.226;2023-03-05T09:55:41;21.70;;;13.27;;
359;SDS011;168;48.872;9.226;2023-03-05T09:58:12;24.63;;;14.30;;
359;SDS011;168;48.872;9.226;2023-03-05T10:00:42;20.70;;;13.73;;
359;SDS011;168;48.872;9.226;2023-03-05T10:03:13;20.30;;;13.20;;
359;SDS011;168;48.872;9.226;2023-03-05T10:06:01;21.00;;;13.67;;
359;SDS011;168;48.872;9.226;2023-03-05T10:08:39;19.27;;;13.97;;
359;SDS011;168;48.872;9.226;2023-03-05T10:11:18;23.33;;;13.70;;
359;SDS011;168;48.872;9.226;2023-03-05T10:14:03;19.73;;;13.53;;
359;SDS011;168;48.872;9.226;2023-03-05T10:16:40;20.93;;;14.07;;
359;SDS011;168;48.872;9.226;2023-03-05T10:19:31;22.97;;;13.13;;
359;SDS011;168;48.872;9.226;2023-03-05T10:22:21;19.30;;;13.40;;
359;SDS011;168;48.872;9.226;2023-03-05T10:24:55;23.47;;;15.37;;
359;SDS011;168;48.872;9.226;2023-03-05T10:27:32;22.77;;;14.00;;
359;SDS011;168;48.872;9.226;2023-03-05T10:30:16;21.10;;;13.80;;
359;SDS011;168;48.872;9.226;2023-03-05T10:32:54;22.90;;;14.57;;
359;SDS011;168;48.872;9.226;2023-03-05T10:35:38;23.50;;;13.70;;
359;SDS011;168;48.872;9.226;2023-03-05T10:38:36;22.37;;;14.43;;
359;SDS011;168;48.872;9.226;2023-03-05T10:41:23;22.00;;;13.67;;
359;SDS011;168;48.872;9.226;2023-03-05T10:43:58;21.70;;;14.07;;
359;SDS011;168;48.872;9.226;2023-03-05T10:46:31;24.57;;;15.33;;
359;SDS011;168;48.872;9.226;2023-03-05T10:49:04;21.37;;;14.93;;
359;SDS011;168;48.872;9.226;2023-03-05T10:51:42;22.43;;;14.67;;
359;SDS011;168;48.872;9.226;2023-03-05T10:54:17;26.90;;;15.63;;
359;SDS011;168;48.872;9.226;2023-03-05T10:56:50;21.53;;;14.43;;
359;SDS011;168;48.872;9.226;2023-03-05T10:59:27;23.93;;;16.00;;
359;SDS011;168;48.872;9.226;2023-03-05T11:02:01;21.67;;;15.73;;
359;SDS011;168;48.872;9.226;2023-03-05T11:04:33;24.17;;;15.10;;
359;SDS011;168;48.872;9.226;2023-03-05T11:07:05;22.27;;;13.83;;
359;SDS011;168;48.872;9.226;2023-03-05T11:09:35;26.70;;;17.30;;
359;SDS011;168;48.872;9.226;2023-03-05T11:12:05;25.33;;;15.80;;
359;SDS011;168;48.872;9.226;2023-03-05T11:14:38;27.43;;;15.73;;
359;SDS011;168;48.872;9.226;2023-03-05T11:17:22;21.10;;;15.00;;
359;SDS011;168;48.872;9.226;2023-03-05T11:23:19;24.50;;;16.53;;
359;SDS011;168;48.872;9.226;2023-03-05T11:26:04;28.23;;;15.97;;
359;SDS011;168;48.872;9.226;2023-03-05T11:28:56;22.70;;;14.40;;
359;SDS011;168;48.872;9.226;2023-03-05T11:31:27;24.43;;;13.67;;
359;SDS011;168;48.872;9.226;2023-03-05T11:33:59;22.75;;;14.90;;
359;SDS011;168;48.872;9.226;2023-03-05T11:36:31;18.83;;;14.20;;
359;SDS011;168;48.872;9.226;2023-03-05T11:39:10;22.17;;;14.33;;
359;SDS011;168;48.872;9.226;2023-03-05T11:44:44;20.48;;;14.15;;
359;SDS011;168;48.872;9.226;2023-03-05T11:47:19;19.50;;;14.43;;
359;SDS011;168;48.872;9.226;2023-03-05T11:49:58;19.93;;;13.30;;
359;SDS011;168;48.872;9.226;2023-03-05T11:52:33;22.60;;;15.70;;
359;SDS011;168;48.872;9.226;2023-03-05T11:55:09;20.47;;;14.83;;
359;SDS011;168;48.872;9.226;2023-03-05T11:57:42;20.90;;;14.47;;
359;SDS011;168;48.872;9.226;2023-03-05T12:00:14;21.50;;;13.00;;
359;SDS011;168;48.872;9.226;2023-03-05T12:02:44;18.87;;;12.60;;
359;SDS011;168;48.872;9.226;2023-03-05T12:05:16;20.90;;;14.47;;
359;SDS011;168;48.872;9.226;2023-03-05T12:07:44;21.47;;;14.33;;
359;SDS011;168;48.872;9.226;2023-03-05T12:10:18;18.60;;;13.53;;
359;SDS011;168;48.872;9.226;2023-03-05T12:12:50;19.80;;;13.60;;
359;SDS011;168;48.872;9.226;2023-03-05T12:15:27;19.43;;;14.07;;
359;SDS011;168;48.872;9.226;2023-03-05T12:18:19;23.17;;;14.37;;
359;SDS011;168;48.872;9.226;2023-03-05T12:27:34;24.13;;;14.50;;
359;SDS011;168;48.872;9.226;2023-03-05T12:30:08;19.70;;;12.50;;
359;SDS011;168;48.872;9.226;2023-03-05T12:36:51;17.60;;;12.03;;
359;SDS011;168;48.872;9.226;2023-03-05T12:39:40;21.20;;;13.67;;
359;SDS011;168;48.872;9.226;2023-03-05T12:45:24;21.00;;;13.03;;
359;SDS011;168;48.872;9.226;2023-03-05T12:50:56;19.97;;;13.60;;
359;SDS011;168;48.872;9.226;2023-03-05T12:53:25;18.27;;;13.40;;
359;SDS011;168;48.872;9.226;2023-03-05T12:55:54;17.20;;;13.43;;
359;SDS011;168;48.872;9.226;2023-03-05T12:58:30;18.70;;;12.73;;
359;SDS011;168;48.872;9.226;2023-03-05T13:01:05;20.50;;;14.10;;
359;SDS011;168;48.872;9.226;2023-03-05T13:03:43;17.17;;;12.17;;
359;SDS011;168;48.872;9.226;2023-03-05T13:06:24;17.40;;;12.60;;
359;SDS011;168;48.872;9.226;2023-03-05T13:08:55;16.43;;;11.90;;
359;SDS011;168;48.872;9.226;2023-03-05T13:11:26;17.43;;;12.20;;
359;SDS011;168;48.872;9.226;2023-03-05T13:13:55;17.07;;;11.80;;
359;SDS011;168;48.872;9.226;2023-03-05T13:16:26;15.63;;;13.00;;
359;SDS011;168;48.872;9.226;2023-03-05T13:18:55;16.40;;;12.30;;
359;SDS011;168;48.872;9.226;2023-03-05T13:21:26;15.47;;;11.40;;
359;SDS011;168;48.872;9.226;2023-03-05T13:23:56;21.57;;;15.40;;
359;SDS011;168;48.872;9.226;2023-03-05T13:26:27;18.57;;;12.80;;
359;SDS011;168;48.872;9.226;2023-03-05T13:29:02;17.83;;;12.10;;
359;SDS011;168;48.872;9.226;2023-03-05T13:31:39;19.57;;;13.90;;
359;SDS011;168;48.872;9.226;2023-03-05T13:34:10;16.40;;;13.10;;
359;SDS011;168;48.872;9.226;2023-03-05T13:36:44;20.70;;;13.00;;
359;SDS011;168;48.872;9.226;2023-03-05T13:39:19;16.87;;;11.97;;
359;SDS011;168;48.872;9.226;2023-03-05T13:41:59;14.83;;;11.67;;
359;SDS011;168;48.872;9.226;2023-03-05T13:44:29;17.70;;;13.17;;
359;SDS011;168;48.872;9.226;2023-03-05T13:47:15;19.20;;;13.93;;
359;SDS011;168;48.872;9.226;2023-03-05T13:49:44;14.77;;;12.07;;
359;SDS011;168;48.872;9.226;2023-03-05T13:52:21;21.47;;;12.23;;
359;SDS011;168;48.872;9.226;2023-03-05T13:54:49;21.90;;;14.60;;
359;SDS011;168;48.872;9.226;2023-03-05T13:57:31;18.90;;;12.87;;
359;SDS011;168;48.872;9.226;2023-03-05T14:00:01;19.50;;;12.53;;
359;SDS011;168;48.872;9.226;2023-03-05T14:02:31;18.03;;;12.27;;
359;SDS011;168;48.872;9.226;2023-03-05T14:04:59;18.40;;;11.00;;
359;SDS011;168;48.872;9.226;2023-03-05T14:07:28;17.40;;;11.77;;
359;SDS011;168;48.872;9.226;2023-03-05T14:09:59;15.13;;;11.13;;
359;SDS011;168;48.872;9.226;2023-03-05T14:12:29;17.33;;;12.13;;
359;SDS011;168;48.872;9.226;2023-03-05T14:15:02;15.63;;;11.47;;
359;SDS011;168;48.872;9.226;2023-03-05T14:17:37;15.97;;;12.47;;
359;SDS011;168;48.872;9.226;2023-03-05T14:20:07;21.53;;;13.50;;
359;SDS011;168;48.872;9.226;2023-03-05T14:22:46;20.30;;;13.63;;
359;SDS011;168;48.872;9.226;2023-03-05T14:28:05;24.50;;;12.13;;
359;SDS011;168;48.872;9.226;2023-03-05T14:30:53;19.90;;;12.90;;
359;SDS011;168;48.872;9.226;2023-03-05T14:33:24;15.87;;;11.90;;
359;SDS011;168;48.872;9.226;2023-03-05T14:35:54;17.03;;;11.80;;
359;SDS011;168;48.872;9.226;2023-03-05T14:38:23;17.83;;;12.60;;
359;SDS011;168;48.872;9.226;2023-03-05T14:40:54;26.60;;;14.50;;
359;SDS011;168;48.872;9.226;2023-03-05T14:43:21;18.90;;;14.47;;
359;SDS011;168;48.872;9.226;2023-03-05T14:45:51;20.40;;;12.93;;
359;SDS011;168;48.872;9.226;2023-03-05T14:48:19;21.37;;;13.60;;
359;SDS011;168;48.872;9.226;2023-03-05T14:50:48;19.10;;;12.93;;
359;SDS011;168;48.872;9.226;2023-03-05T14:53:20;18.73;;;12.93;;
359;SDS011;168;48.872;9.226;2023-03-05T14:55:50;18.70;;;12.77;;
359;SDS011;168;48.872;9.226;2023-03-05T14:58:21;15.67;;;11.67;;
359;SDS011;168;48.872;9.226;2023-03-05T15:00:51;16.40;;;11.07;;
359;SDS011;168;48.872;9.226;2023-03-05T15:03:20;16.47;;;11.80;;
359;SDS011;168;48.872;9.226;2023-03-05T15:05:50;17.20;;;11.90;;
359;SDS011;168;48.872;9.226;2023-03-05T15:08:20;17.43;;;11.77;;
359;SDS011;168;48.872;9.226;2023-03-05T15:10:50;18.07;;;12.03;;
359;SDS011;168;48.872;9.226;2023-03-05T15:13:18;18.80;;;12.43;;
359;SDS011;168;48.872;9.226;2023-03-05T15:15:47;18.33;;;12.33;;
359;SDS011;168;48.872;9.226;2023-03-05T15:18:16;15.13;;;10.57;;
359;SDS011;168;48.872;9.226;2023-03-05T15:20:45;19.17;;;12.40;;
359;SDS011;168;48.872;9.226;2023-03-05T15:23:16;19.10;;;12.57;;
359;SDS011;168;48.872;9.226;2023-03-05T15:25:45;17.90;;;12.70;;
359;SDS011;168;48.872;9.226;2023-03-05T15:28:13;15.60;;;11.13;;
359;SDS011;168;48.872;9.226;2023-03-05T15:30:42;18.83;;;11.63;;
359;SDS011;168;48.872;9.226;2023-03-05T15:33:16;18.33;;;12.43;;
359;SDS011;168;48.872;9.226;2023-03-05T15:35:44;19.43;;;13.10;;
359;SDS011;168;48.872;9.226;2023-03-05T15:38:15;18.97;;;14.33;;
359;SDS011;168;48.872;9.226;2023-03-05T15:40:45;13.87;;;11.70;;
359;SDS011;168;48.872;9.226;2023-03-05T15:43:18;14.50;;;11.80;;
359;SDS011;168;48.872;9.226;2023-03-05T15:45:49;17.03;;;12.83;;
359;SDS011;168;48.872;9.226;2023-03-05T15:48:20;20.23;;;12.30;;
359;SDS011;168;48.872;9.226;2023-03-05T15:50:54;15.47;;;10.83;;
359;SDS011;168;48.872;9.226;2023-03-05T15:56:12;16.63;;;12.70;;
359;SDS011;168;48.872;9.226;2023-03-05T15:58:41;18.30;;;11.77;;
359;SDS011;168;48.872;9.226;2023-03-05T16:01:09;19.30;;;12.47;;
359;SDS011;168;48.872;9.226;2023-03-05T16:03:36;18.83;;;12.73;;
359;SDS011;168;48.872;9.226;2023-03-05T16:06:05;15.50;;;12.00;;
359;SDS011;168;48.872;9.226;2023-03-05T16:08:34;26.17;;;12.30;;
359;SDS011;168;48.872;9.226;2023-03-05T16:11:04;18.10;;;11.17;;